Terminal Aerodrome Forecast
Issued by NWS Raleigh/Durham, NC

Home | Current Version | Previous Version | Text Only | Print | Product List | Glossary On
Versions: 1 2 3 4 5 6 7 8 9 10 11 12 13 14 15 16 17 18 19 20 21 22 23 24 25 26 27 28 29 30 31 32 33 34 35 36 37 38 39 40 41
050
FTUS42 KRAH 200528
TAFGSO
TAF
KGSO 200528Z 2006/2106 20004KT P6SM BKN190
     FM200800 14004KT P6SM -RA OVC030
     FM201100 17006KT 2SM -RA BR OVC010
     FM201500 20003KT 5SM BR OVC006=

USA.gov is the U.S. government's official web portal to all federal, state and local government web resources and services.